Elyria, OH (44035)

9:43 PM EST on February 07, 2016 (GMT -0500)
NC8OS WX Elyria, Ohio | | Change Station
CLOSE
Current Station
Personal Weather Station
Location: Elyria, OH
Elevation: 728 ft
Nearby Weather Stations

Elev 728 ft 41.38 °N, 82.13 °W | Updated 12 minutes ago

Overcast
Overcast
45.3 °F
Feels Like 45 °F
N
2.7
Wind Variable Wind from SE

Today
High -- | Low -- °F
--% Chance of Precip.
Yesterday
High -- | Low -- °F
Precip. -- in
Pressure 29.83 in
Visibility 10.0 miles
Clouds Overcast 11000 ft
Windchill 45 °F
Dew Point 27 °F
Humidity 48%
Rainfall 0.00 in
Snow Depth Not available.
7:33 AM 5:51 PM
Waning Crescent, 0% visible
METAR KLPR 080153Z AUTO 21009KT 10SM OVC110 07/M04 A2981 RMK AO2 SLP100 T00721044 TSNO
Pressure 29.83 in
Visibility 10.0 miles
Clouds Overcast 11000 ft
Windchill 45 °F
Dew Point 27 °F
Humidity 48%
Rainfall 0.00 in
Snow Depth Not available.
7:33 AM 5:51 PM
Waning Crescent, 0% visible
METAR KLPR 080153Z AUTO 21009KT 10SM OVC110 07/M04 A2981 RMK AO2 SLP100 T00721044 TSNO

10-Day Weather Forecast

Almanac

Astronomy

Feb. 07, 2016 Rise Set
Actual Time
Civil Twilight
Nautical Twilight
Astronomical Twilight
Moon
Length of Visible Light
Length of Day
Tomorrow will be .
, % of the Moon is Illuminated

Today's Extremes

State Highs State Lows

Community

WunderPhotos

Upload Photos

1,891,373 photos uploaded!

WunderBlog® & News

Nearby

Air Quality

  Air Quality AQ Index Pollutant
Not available.

Snow Depth

Station Depth Elevation

Earthquake Activity

City Distance Mag. Time & Date
Minimum magnitude displayed is 2.5.

Coastal Water Temperatures

Place Temperature

Stations

Nearby Weather Stations

Station Location Temp. Windchill Dew Point Humidity Wind Precip. Elev Updated Type
                   

Watches & Warnings

There are currently no watches in effect.